createdAt,value
2023-02-28T00:01:06.326Z,36.60
2023-02-28T00:03:35.633Z,43.80
2023-02-28T00:06:05.039Z,41.60
2023-02-28T00:08:32.257Z,53.00
2023-02-28T00:11:03.812Z,51.10
2023-02-28T00:13:31.346Z,39.50
2023-02-28T00:16:03.838Z,42.90
2023-02-28T00:18:31.635Z,47.70
2023-02-28T00:20:59.422Z,51.30
2023-02-28T00:23:27.351Z,55.20
2023-02-28T00:25:54.376Z,43.90
2023-02-28T00:28:22.257Z,45.50
2023-02-28T00:30:49.424Z,50.80
2023-02-28T00:33:16.495Z,48.30
2023-02-28T00:35:46.713Z,42.20
2023-02-28T00:38:14.234Z,34.10
2023-02-28T00:40:41.173Z,36.90
2023-02-28T00:43:08.232Z,38.40
2023-02-28T00:45:35.200Z,34.00
2023-02-28T00:48:02.237Z,34.30
2023-02-28T00:50:30.089Z,37.50
2023-02-28T00:52:57.855Z,34.40
2023-02-28T00:55:24.863Z,37.60
2023-02-28T00:57:51.850Z,36.90
2023-02-28T01:00:19.100Z,38.70
2023-02-28T01:02:45.970Z,38.40
2023-02-28T01:05:13.511Z,34.40
2023-02-28T01:07:40.484Z,37.80
2023-02-28T01:10:08.418Z,43.10
2023-02-28T01:12:35.497Z,48.40
2023-02-28T01:15:02.758Z,42.70
2023-02-28T01:17:29.884Z,44.80
2023-02-28T01:19:56.915Z,45.40
2023-02-28T01:22:25.889Z,47.50
2023-02-28T01:24:53.476Z,44.10
2023-02-28T01:27:20.563Z,37.60
2023-02-28T01:29:47.521Z,41.80
2023-02-28T01:32:14.531Z,40.50
2023-02-28T01:34:41.628Z,40.20
2023-02-28T01:37:08.567Z,43.80
2023-02-28T01:39:35.479Z,43.30
2023-02-28T01:42:04.288Z,41.80
2023-02-28T01:45:01.795Z,37.80
2023-02-28T01:47:36.949Z,43.00
2023-02-28T01:52:34.571Z,39.30
2023-02-28T01:55:04.744Z,40.40
2023-02-28T01:57:38.116Z,38.00
2023-02-28T02:00:15.521Z,39.40
2023-02-28T02:02:51.272Z,43.80
2023-02-28T02:05:31.567Z,42.80
2023-02-28T02:08:12.677Z,40.20
2023-02-28T02:10:55.932Z,42.80
2023-02-28T02:13:55.996Z,41.20
2023-02-28T02:16:39.431Z,39.90
2023-02-28T02:19:34.556Z,41.20
2023-02-28T02:22:16.475Z,35.90
2023-02-28T02:24:55.378Z,35.90
2023-02-28T02:27:37.158Z,51.30
2023-02-28T02:30:22.585Z,38.30
2023-02-28T02:36:02.416Z,36.20
2023-02-28T02:38:43.936Z,41.90
2023-02-28T02:41:25.010Z,39.70
2023-02-28T02:44:02.043Z,40.10
2023-02-28T02:46:42.856Z,40.80
2023-02-28T02:49:16.259Z,38.00
2023-02-28T02:51:46.312Z,40.30
2023-02-28T02:54:30.850Z,39.60
2023-02-28T02:57:02.088Z,45.60
2023-02-28T02:59:30.870Z,42.10
2023-02-28T03:02:02.335Z,45.00
2023-02-28T03:04:33.976Z,41.00
2023-02-28T03:07:01.069Z,41.80
2023-02-28T03:09:28.056Z,42.90
2023-02-28T03:11:57.212Z,41.70
2023-02-28T03:14:53.383Z,46.60
2023-02-28T03:17:32.306Z,50.80
2023-02-28T03:19:59.192Z,50.40
2023-02-28T03:22:53.699Z,52.60
2023-02-28T03:25:40.880Z,48.50
2023-02-28T03:28:37.432Z,51.50
2023-02-28T03:31:12.781Z,48.30
2023-02-28T03:33:55.020Z,47.30
2023-02-28T03:36:32.711Z,50.80
2023-02-28T03:39:07.720Z,51.00
2023-02-28T03:41:42.617Z,44.80
2023-02-28T03:44:16.252Z,50.20
2023-02-28T03:46:52.831Z,53.00
2023-02-28T03:49:25.260Z,59.50
2023-02-28T03:51:54.986Z,68.90
2023-02-28T03:54:32.100Z,65.60
2023-02-28T03:57:11.120Z,65.40
2023-02-28T03:59:44.210Z,46.30
2023-02-28T04:02:11.216Z,46.20
2023-02-28T04:04:38.419Z,40.80
2023-02-28T04:07:08.561Z,39.60
2023-02-28T04:09:35.639Z,38.40
2023-02-28T04:12:02.882Z,37.60
2023-02-28T04:14:30.226Z,39.20
2023-02-28T04:16:57.458Z,38.10
2023-02-28T04:19:24.764Z,42.60
2023-02-28T04:21:53.601Z,43.20
2023-02-28T04:24:23.566Z,47.80
2023-02-28T04:26:53.287Z,41.20
2023-02-28T04:29:29.426Z,50.10
2023-02-28T04:32:01.095Z,61.20
2023-02-28T04:34:30.827Z,61.80
2023-02-28T04:37:11.980Z,59.20
2023-02-28T04:39:40.862Z,55.70
2023-02-28T04:42:08.095Z,52.90
2023-02-28T04:44:35.028Z,58.10
2023-02-28T04:47:02.001Z,54.20
2023-02-28T04:49:29.147Z,51.40
2023-02-28T04:51:56.184Z,51.40
2023-02-28T04:54:23.183Z,48.70
2023-02-28T04:56:50.284Z,52.20
2023-02-28T04:59:17.813Z,50.90
2023-02-28T05:01:49.381Z,52.70
2023-02-28T05:04:16.704Z,49.80
2023-02-28T05:06:43.686Z,48.70
2023-02-28T05:09:13.763Z,55.90
2023-02-28T05:11:41.386Z,53.20
2023-02-28T05:14:13.699Z,62.10
2023-02-28T05:16:40.965Z,57.80
2023-02-28T05:19:08.135Z,61.70
2023-02-28T05:21:38.290Z,54.90
2023-02-28T05:24:08.437Z,51.40
2023-02-28T05:26:41.110Z,49.00
2023-02-28T05:29:09.252Z,56.30
2023-02-28T05:31:36.863Z,81.10
2023-02-28T05:34:06.708Z,82.90
2023-02-28T05:36:34.166Z,78.10
2023-02-28T05:39:01.228Z,70.40
2023-02-28T05:41:28.683Z,65.90
2023-02-28T05:43:57.695Z,54.40
2023-02-28T05:46:24.629Z,49.80
2023-02-28T05:48:51.634Z,55.10
2023-02-28T05:51:18.743Z,57.50
2023-02-28T05:53:45.996Z,54.50
2023-02-28T05:56:13.300Z,51.10
2023-02-28T05:58:40.788Z,54.00
2023-02-28T06:01:37.937Z,62.30
2023-02-28T06:04:14.341Z,47.40
2023-02-28T06:06:50.688Z,55.20
2023-02-28T06:09:19.661Z,47.80
2023-02-28T06:11:47.238Z,46.50
2023-02-28T06:14:19.711Z,50.80
2023-02-28T06:16:48.089Z,50.10
2023-02-28T06:19:15.984Z,49.10
2023-02-28T06:21:43.512Z,52.80
2023-02-28T06:24:10.952Z,53.80
2023-02-28T06:26:38.524Z,53.80
2023-02-28T06:29:06.169Z,64.90
2023-02-28T06:31:34.091Z,74.70
2023-02-28T06:34:01.803Z,65.80
2023-02-28T06:36:29.517Z,63.90
2023-02-28T06:38:57.271Z,64.00
2023-02-28T06:41:26.430Z,78.50
2023-02-28T06:43:55.068Z,79.10
2023-02-28T06:46:24.504Z,96.80
2023-02-28T06:48:52.377Z,97.10
2023-02-28T06:51:22.724Z,116.40
2023-02-28T06:53:50.454Z,117.40
2023-02-28T06:56:18.967Z,121.60
2023-02-28T06:58:52.139Z,103.60
2023-02-28T07:01:20.441Z,131.70
2023-02-28T07:03:52.496Z,125.80
2023-02-28T07:06:24.741Z,120.70
2023-02-28T07:08:53.514Z,113.60
2023-02-28T07:11:26.061Z,133.40
2023-02-28T07:13:55.526Z,117.80
2023-02-28T07:16:24.289Z,88.40
2023-02-28T07:18:55.564Z,91.00
2023-02-28T07:21:23.011Z,80.50
2023-02-28T07:23:50.633Z,94.10
2023-02-28T07:26:20.537Z,87.20
2023-02-28T07:28:49.001Z,84.30
2023-02-28T07:31:17.568Z,81.40
2023-02-28T07:33:44.724Z,76.30
2023-02-28T07:36:15.601Z,75.50
2023-02-28T07:38:45.778Z,70.80
2023-02-28T07:41:16.225Z,67.10
2023-02-28T07:43:44.679Z,58.40
2023-02-28T07:46:17.732Z,39.40
2023-02-28T07:48:45.689Z,38.00
2023-02-28T07:51:13.048Z,35.20
2023-02-28T07:53:41.083Z,28.80
2023-02-28T07:56:08.391Z,24.80
2023-02-28T07:58:35.410Z,28.10
2023-02-28T08:01:10.345Z,26.80
2023-02-28T08:03:38.832Z,27.60
2023-02-28T08:06:08.307Z,36.30
2023-02-28T08:08:35.704Z,34.30
2023-02-28T08:11:03.835Z,19.70
2023-02-28T08:13:32.187Z,28.20
2023-02-28T08:16:02.490Z,25.50
2023-02-28T08:18:30.118Z,16.70
2023-02-28T08:20:57.827Z,16.40
2023-02-28T08:23:25.001Z,15.10
2023-02-28T08:25:56.237Z,19.80
2023-02-28T08:28:26.095Z,17.30
2023-02-28T08:30:55.318Z,16.90
2023-02-28T08:33:23.228Z,15.50
2023-02-28T08:35:54.416Z,20.20
2023-02-28T08:38:22.471Z,15.00
2023-02-28T08:40:50.040Z,17.70
2023-02-28T08:43:17.257Z,16.20
2023-02-28T08:45:44.484Z,14.80
2023-02-28T08:48:11.583Z,14.40
2023-02-28T08:50:38.573Z,17.90
2023-02-28T08:53:05.759Z,18.80
2023-02-28T08:55:32.763Z,17.00
2023-02-28T08:58:01.560Z,16.40
2023-02-28T09:00:28.994Z,19.20
2023-02-28T09:02:55.975Z,18.90
2023-02-28T09:05:23.377Z,21.40
2023-02-28T09:07:50.484Z,21.40
2023-02-28T09:10:17.556Z,20.70
2023-02-28T09:12:47.252Z,19.40
2023-02-28T09:15:14.326Z,19.60
2023-02-28T09:17:41.891Z,20.30
2023-02-28T09:20:10.369Z,20.70
2023-02-28T09:22:37.384Z,19.70
2023-02-28T09:25:04.735Z,17.70
2023-02-28T09:27:31.830Z,13.00
2023-02-28T09:29:58.917Z,16.10
2023-02-28T09:32:26.033Z,15.20
2023-02-28T09:34:53.144Z,15.50
2023-02-28T09:37:20.318Z,11.40
2023-02-28T09:39:47.375Z,12.50
2023-02-28T09:42:33.476Z,16.00
2023-02-28T09:45:16.559Z,16.70
2023-02-28T09:47:47.051Z,10.70
2023-02-28T09:50:28.980Z,11.40
2023-02-28T09:52:56.656Z,11.10
2023-02-28T09:55:28.931Z,10.90
2023-02-28T09:58:00.440Z,13.90
2023-02-28T10:00:34.706Z,16.40
2023-02-28T10:03:01.874Z,15.30
2023-02-28T10:06:12.612Z,15.80
2023-02-28T10:08:48.897Z,15.70
2023-02-28T10:11:18.719Z,16.90
2023-02-28T10:14:16.273Z,19.20
2023-02-28T10:17:04.217Z,18.30
2023-02-28T10:19:34.168Z,16.80
2023-02-28T10:22:04.343Z,15.50
2023-02-28T10:24:54.508Z,18.10
2023-02-28T10:27:29.336Z,16.00
2023-02-28T10:29:59.581Z,14.20
2023-02-28T10:32:31.411Z,18.10
2023-02-28T10:35:18.546Z,18.30
2023-02-28T10:37:50.483Z,11.50
2023-02-28T10:40:20.569Z,15.10
2023-02-28T10:43:01.216Z,13.20
2023-02-28T10:45:35.421Z,12.30
2023-02-28T10:48:11.695Z,16.30
2023-02-28T10:50:50.064Z,14.70
2023-02-28T10:53:26.193Z,12.80
2023-02-28T10:56:18.081Z,12.80
2023-02-28T10:58:45.312Z,18.30
2023-02-28T11:01:18.409Z,16.20
2023-02-28T11:03:46.459Z,19.00
2023-02-28T11:06:21.499Z,18.30
2023-02-28T11:08:53.077Z,18.40
2023-02-28T11:11:22.136Z,16.60
2023-02-28T11:13:53.826Z,14.10
2023-02-28T11:16:22.110Z,15.80
2023-02-28T11:18:55.763Z,17.60
2023-02-28T11:21:52.401Z,16.10
2023-02-28T11:24:29.232Z,12.30
2023-02-28T11:26:57.150Z,15.10
2023-02-28T11:29:27.747Z,15.50
2023-02-28T11:32:13.261Z,17.10
2023-02-28T11:37:19.181Z,16.40
2023-02-28T11:39:47.098Z,17.00
2023-02-28T11:42:29.039Z,16.70
2023-02-28T11:45:15.578Z,18.30
2023-02-28T11:47:57.281Z,18.50
2023-02-28T11:50:27.725Z,18.20
2023-02-28T11:52:56.924Z,18.20
2023-02-28T11:55:48.176Z,17.40
2023-02-28T11:58:34.292Z,19.90
2023-02-28T12:01:37.403Z,15.80
2023-02-28T12:04:23.472Z,15.00
2023-02-28T12:06:57.077Z,17.80
2023-02-28T12:09:52.390Z,18.10
2023-02-28T12:12:44.377Z,15.30
2023-02-28T12:15:44.175Z,17.00
2023-02-28T12:18:31.321Z,17.20
2023-02-28T12:21:12.054Z,15.40
2023-02-28T12:23:54.874Z,17.20
2023-02-28T12:26:56.017Z,14.30
2023-02-28T12:29:30.540Z,18.20
2023-02-28T12:32:13.001Z,21.10
2023-02-28T12:35:05.104Z,19.00
2023-02-28T12:37:43.994Z,19.10
2023-02-28T12:40:13.200Z,17.80
2023-02-28T12:42:46.760Z,19.10
2023-02-28T12:45:24.438Z,20.90
2023-02-28T12:48:01.382Z,17.50
2023-02-28T12:50:31.809Z,18.70
2023-02-28T12:53:01.227Z,19.50
2023-02-28T12:55:40.197Z,16.70
2023-02-28T12:58:13.523Z,18.20
2023-02-28T13:01:01.583Z,17.40
2023-02-28T13:04:00.535Z,18.90
2023-02-28T13:07:18.301Z,18.20
2023-02-28T13:10:01.311Z,15.40
2023-02-28T13:12:28.934Z,15.90
2023-02-28T13:15:16.903Z,19.50
2023-02-28T13:17:50.470Z,17.30
2023-02-28T13:20:24.190Z,18.50
2023-02-28T13:22:54.077Z,16.50
2023-02-28T13:25:34.842Z,30.20
2023-02-28T13:28:09.128Z,18.80
2023-02-28T13:30:58.993Z,20.00
2023-02-28T13:33:40.234Z,16.60
2023-02-28T13:36:23.429Z,14.90
2023-02-28T13:39:00.656Z,17.30
2023-02-28T13:41:34.130Z,17.70
2023-02-28T13:44:12.074Z,18.00
2023-02-28T13:46:48.603Z,29.40
2023-02-28T13:49:34.806Z,17.20
2023-02-28T13:52:09.058Z,17.70
2023-02-28T13:55:09.110Z,20.00
2023-02-28T13:57:55.626Z,20.10
2023-02-28T14:01:02.891Z,21.60
2023-02-28T14:03:36.383Z,20.60
2023-02-28T14:06:15.215Z,18.30
2023-02-28T14:08:56.871Z,23.80
2023-02-28T14:11:31.693Z,19.60
2023-02-28T14:13:59.904Z,21.20
2023-02-28T14:16:37.087Z,24.20
2023-02-28T14:19:26.124Z,22.30
2023-02-28T14:22:25.033Z,19.20
2023-02-28T14:25:17.069Z,19.20
2023-02-28T14:27:48.646Z,20.60
2023-02-28T14:30:34.455Z,18.40
2023-02-28T14:33:49.457Z,19.70
2023-02-28T14:36:28.104Z,29.80
2023-02-28T14:39:01.869Z,22.70
2023-02-28T14:41:37.148Z,23.60
2023-02-28T14:44:21.514Z,24.70
2023-02-28T14:46:55.371Z,22.50
2023-02-28T14:49:29.536Z,20.80
2023-02-28T14:52:19.409Z,27.10
2023-02-28T14:54:46.901Z,22.30
2023-02-28T14:57:41.429Z,23.20
2023-02-28T15:00:16.833Z,22.40
2023-02-28T15:02:44.046Z,22.40
2023-02-28T15:05:23.500Z,22.80
2023-02-28T15:08:13.563Z,25.00
2023-02-28T15:10:51.158Z,21.40
2023-02-28T15:13:19.702Z,22.20
2023-02-28T15:16:04.404Z,18.30
2023-02-28T15:18:31.947Z,21.20
2023-02-28T15:21:13.734Z,22.00
2023-02-28T15:23:45.468Z,22.20
2023-02-28T15:26:17.739Z,23.60
2023-02-28T15:28:46.300Z,21.80
2023-02-28T15:31:57.293Z,24.10
2023-02-28T15:34:43.543Z,22.70
2023-02-28T15:37:31.037Z,19.70
2023-02-28T15:40:11.805Z,22.30
2023-02-28T15:42:39.285Z,20.30
2023-02-28T15:45:26.585Z,20.10
2023-02-28T15:47:54.787Z,19.70
2023-02-28T15:50:23.450Z,20.50
2023-02-28T15:52:50.622Z,23.10
2023-02-28T15:55:28.620Z,27.40
2023-02-28T15:57:59.088Z,25.70
2023-02-28T16:00:29.172Z,22.70
2023-02-28T16:02:56.312Z,22.40
2023-02-28T16:05:33.028Z,27.10
2023-02-28T16:08:16.035Z,28.50
2023-02-28T16:10:43.103Z,25.90
2023-02-28T16:13:15.507Z,33.20
2023-02-28T16:15:44.190Z,33.40
2023-02-28T16:18:12.460Z,28.60
2023-02-28T16:20:39.709Z,38.10
2023-02-28T16:23:07.519Z,34.90
2023-02-28T16:25:39.048Z,36.50
2023-02-28T16:28:18.856Z,42.50
2023-02-28T16:30:45.965Z,37.30
2023-02-28T16:33:12.907Z,38.30
2023-02-28T16:35:40.111Z,39.00
2023-02-28T16:38:07.142Z,34.40
2023-02-28T16:40:36.125Z,35.20
2023-02-28T16:43:10.168Z,37.80
2023-02-28T16:45:37.271Z,42.60
2023-02-28T16:48:04.387Z,42.20
2023-02-28T16:50:33.004Z,37.50
2023-02-28T16:52:59.971Z,38.40
2023-02-28T16:55:28.287Z,38.90
2023-02-28T16:57:58.828Z,50.20
2023-02-28T17:00:27.752Z,60.20
2023-02-28T17:02:55.516Z,61.80
2023-02-28T17:05:23.564Z,61.40
2023-02-28T17:07:50.670Z,58.90
2023-02-28T17:10:25.349Z,53.90
2023-02-28T17:12:55.012Z,55.50
2023-02-28T17:15:23.845Z,50.10
2023-02-28T17:17:50.906Z,53.70
2023-02-28T17:20:26.925Z,58.10
2023-02-28T17:22:54.834Z,63.70
2023-02-28T17:25:23.080Z,61.40
2023-02-28T17:27:53.626Z,72.80
2023-02-28T17:30:27.541Z,62.20
2023-02-28T17:32:57.668Z,77.90
2023-02-28T17:35:24.658Z,73.90
2023-02-28T17:37:52.071Z,72.10
2023-02-28T17:40:22.753Z,76.60
2023-02-28T17:42:52.715Z,75.40
2023-02-28T17:45:20.222Z,196.60
2023-02-28T17:47:50.743Z,187.90
2023-02-28T17:50:21.334Z,224.30
2023-02-28T17:52:50.798Z,274.10
2023-02-28T17:55:19.369Z,189.10
2023-02-28T17:57:46.712Z,161.70
2023-02-28T18:00:17.688Z,174.40
2023-02-28T18:02:44.937Z,148.70
2023-02-28T18:05:12.027Z,105.40
2023-02-28T18:07:39.641Z,96.30
2023-02-28T18:10:13.351Z,106.90
2023-02-28T18:12:40.380Z,108.10
2023-02-28T18:15:07.749Z,113.70
2023-02-28T18:17:34.716Z,101.90
2023-02-28T18:20:01.870Z,110.20
2023-02-28T18:22:28.977Z,128.10
2023-02-28T18:24:55.960Z,145.30
2023-02-28T18:27:22.970Z,147.10
2023-02-28T18:29:51.794Z,143.00
2023-02-28T18:32:18.724Z,164.80
2023-02-28T18:34:45.832Z,197.60
2023-02-28T18:37:12.835Z,200.00
2023-02-28T18:39:39.952Z,209.70
2023-02-28T18:42:08.294Z,213.60
2023-02-28T18:44:37.607Z,216.50
2023-02-28T18:47:04.801Z,194.00
2023-02-28T18:49:37.333Z,180.10
2023-02-28T18:52:04.476Z,147.80
2023-02-28T18:54:31.409Z,163.10
2023-02-28T18:56:58.364Z,211.90
2023-02-28T18:59:25.727Z,260.70
2023-02-28T19:01:52.746Z,316.60
2023-02-28T19:04:19.857Z,274.10
2023-02-28T19:06:46.888Z,225.20
2023-02-28T19:09:15.469Z,207.10
2023-02-28T19:11:43.668Z,196.10
2023-02-28T19:14:10.599Z,207.00
2023-02-28T19:16:37.773Z,210.60
2023-02-28T19:19:05.143Z,188.40
2023-02-28T19:21:32.191Z,165.20
2023-02-28T19:24:02.197Z,157.50
2023-02-28T19:26:29.661Z,170.30
2023-02-28T19:28:56.938Z,180.00
2023-02-28T19:31:25.748Z,167.80
2023-02-28T19:33:53.443Z,162.30
2023-02-28T19:36:21.443Z,164.40
2023-02-28T19:38:49.575Z,161.60
2023-02-28T19:41:17.810Z,158.90
2023-02-28T19:43:45.634Z,152.20
2023-02-28T19:46:15.686Z,168.10
2023-02-28T19:48:44.184Z,140.30
2023-02-28T19:51:14.649Z,303.80
2023-02-28T19:53:42.932Z,360.50
2023-02-28T19:56:11.218Z,317.20
2023-02-28T19:58:39.030Z,261.20
2023-02-28T20:01:17.942Z,224.00
2023-02-28T20:03:51.503Z,166.80
2023-02-28T20:06:18.581Z,144.40
2023-02-28T20:08:45.764Z,133.50
2023-02-28T20:11:15.993Z,233.30
2023-02-28T20:13:44.300Z,226.70
2023-02-28T20:16:12.567Z,291.30
2023-02-28T20:18:40.975Z,282.40
2023-02-28T20:21:09.502Z,193.60
2023-02-28T20:23:41.141Z,149.10
2023-02-28T20:26:09.302Z,134.30
2023-02-28T20:28:36.530Z,110.40
2023-02-28T20:31:10.316Z,102.10
2023-02-28T20:33:37.336Z,102.60
2023-02-28T20:36:04.977Z,100.80
2023-02-28T20:38:32.673Z,96.00
2023-02-28T20:41:00.736Z,104.90
2023-02-28T20:43:29.183Z,104.10
2023-02-28T20:46:00.832Z,103.10
2023-02-28T20:48:32.670Z,76.10
2023-02-28T20:50:59.712Z,99.70
2023-02-28T20:53:27.922Z,105.40
2023-02-28T20:55:55.052Z,130.70
2023-02-28T20:58:24.501Z,122.10
2023-02-28T21:00:58.479Z,122.60
2023-02-28T21:03:25.473Z,159.10
2023-02-28T21:05:52.331Z,158.20
2023-02-28T21:08:19.477Z,130.40
2023-02-28T21:10:46.570Z,104.80
2023-02-28T21:13:13.758Z,100.00
2023-02-28T21:15:40.679Z,105.30
2023-02-28T21:18:08.366Z,103.90
2023-02-28T21:20:35.348Z,102.70
2023-02-28T21:23:02.405Z,85.70
2023-02-28T21:25:32.798Z,90.70
2023-02-28T21:27:59.718Z,82.30
2023-02-28T21:30:26.615Z,76.00
2023-02-28T21:32:53.713Z,82.70
2023-02-28T21:35:20.928Z,80.10
2023-02-28T21:37:47.909Z,86.10
2023-02-28T21:40:15.002Z,79.80
2023-02-28T21:42:41.948Z,87.20
2023-02-28T21:45:09.118Z,88.70
2023-02-28T21:47:36.170Z,101.90
2023-02-28T21:50:03.247Z,101.10
2023-02-28T21:52:30.167Z,90.20
2023-02-28T21:54:57.316Z,96.80
2023-02-28T21:57:24.350Z,94.50
2023-02-28T21:59:51.416Z,110.70
2023-02-28T22:02:18.470Z,118.30
2023-02-28T22:04:45.443Z,136.60
2023-02-28T22:07:12.465Z,115.30
2023-02-28T22:09:39.416Z,121.10
2023-02-28T22:12:07.790Z,138.00
2023-02-28T22:14:34.725Z,169.40
2023-02-28T22:17:01.812Z,165.10
2023-02-28T22:19:29.448Z,132.80
2023-02-28T22:21:56.585Z,133.90
2023-02-28T22:24:24.658Z,137.30
2023-02-28T22:26:53.188Z,147.50
2023-02-28T22:29:20.451Z,132.50
2023-02-28T22:31:47.670Z,131.10
2023-02-28T22:34:14.701Z,117.30
2023-02-28T22:36:42.865Z,134.00
2023-02-28T22:39:10.477Z,136.10
2023-02-28T22:41:38.171Z,130.10
2023-02-28T22:44:06.650Z,125.80
2023-02-28T22:46:34.605Z,141.80
2023-02-28T22:49:03.900Z,133.60
2023-02-28T22:51:31.312Z,120.20
2023-02-28T22:53:58.743Z,138.70
2023-02-28T22:56:29.029Z,119.20
2023-02-28T22:58:58.460Z,122.50
2023-02-28T23:01:28.543Z,125.80
2023-02-28T23:03:56.192Z,121.00
2023-02-28T23:06:26.346Z,130.00
2023-02-28T23:08:57.728Z,123.40
2023-02-28T23:11:28.593Z,112.10
2023-02-28T23:13:59.274Z,121.60
2023-02-28T23:16:37.130Z,116.60
2023-02-28T23:19:13.952Z,110.60
2023-02-28T23:21:42.036Z,122.00
2023-02-28T23:24:11.235Z,114.70
2023-02-28T23:26:43.285Z,118.70
2023-02-28T23:29:12.301Z,124.40
2023-02-28T23:31:39.469Z,123.20
2023-02-28T23:34:07.528Z,121.60
2023-02-28T23:36:34.755Z,122.30
2023-02-28T23:39:01.805Z,123.80
2023-02-28T23:41:29.094Z,130.70
2023-02-28T23:43:56.278Z,126.60
2023-02-28T23:46:23.407Z,114.30
2023-02-28T23:48:50.743Z,130.20
2023-02-28T23:51:20.577Z,116.30
2023-02-28T23:53:51.814Z,116.40
2023-02-28T23:56:21.612Z,100.50
2023-02-28T23:58:49.756Z,104.00
